sensor_id;sensor_type;location;lat;lon;timestamp;temperature;humidity
80495;DHT22;69819;48.798;11.770;2023-08-01T00:01:32;22.90;49.40
80495;DHT22;69819;48.798;11.770;2023-08-01T00:03:58;22.90;49.50
80495;DHT22;69819;48.798;11.770;2023-08-01T00:06:24;22.90;49.60
80495;DHT22;69819;48.798;11.770;2023-08-01T00:08:51;22.80;49.50
80495;DHT22;69819;48.798;11.770;2023-08-01T00:11:17;22.80;49.70
80495;DHT22;69819;48.798;11.770;2023-08-01T00:13:43;22.80;49.80
80495;DHT22;69819;48.798;11.770;2023-08-01T00:16:09;22.80;49.80
80495;DHT22;69819;48.798;11.770;2023-08-01T00:18:35;22.70;49.70
80495;DHT22;69819;48.798;11.770;2023-08-01T00:21:02;22.70;49.80
80495;DHT22;69819;48.798;11.770;2023-08-01T00:23:28;22.70;49.90
80495;DHT22;69819;48.798;11.770;2023-08-01T00:25:54;22.70;50.00
80495;DHT22;69819;48.798;11.770;2023-08-01T00:28:21;22.60;49.90
80495;DHT22;69819;48.798;11.770;2023-08-01T00:30:48;22.60;50.10
80495;DHT22;69819;48.798;11.770;2023-08-01T00:33:13;22.60;50.00
80495;DHT22;69819;48.798;11.770;2023-08-01T00:35:40;22.60;50.10
80495;DHT22;69819;48.798;11.770;2023-08-01T00:38:06;22.60;50.20
80495;DHT22;69819;48.798;11.770;2023-08-01T00:40:33;22.60;50.20
80495;DHT22;69819;48.798;11.770;2023-08-01T00:42:59;22.50;50.20
80495;DHT22;69819;48.798;11.770;2023-08-01T00:45:29;22.50;50.20
80495;DHT22;69819;48.798;11.770;2023-08-01T00:47:56;22.50;50.60
80495;DHT22;69819;48.798;11.770;2023-08-01T00:50:23;22.50;50.40
80495;DHT22;69819;48.798;11.770;2023-08-01T00:52:50;22.50;50.50
80495;DHT22;69819;48.798;11.770;2023-08-01T00:55:18;22.40;50.50
80495;DHT22;69819;48.798;11.770;2023-08-01T00:57:44;22.40;50.60
80495;DHT22;69819;48.798;11.770;2023-08-01T01:00:10;22.40;50.60
80495;DHT22;69819;48.798;11.770;2023-08-01T01:02:37;22.50;50.90
80495;DHT22;69819;48.798;11.770;2023-08-01T01:05:04;22.40;50.80
80495;DHT22;69819;48.798;11.770;2023-08-01T01:07:31;22.40;50.80
80495;DHT22;69819;48.798;11.770;2023-08-01T01:09:58;22.40;50.90
80495;DHT22;69819;48.798;11.770;2023-08-01T01:12:24;22.40;50.90
80495;DHT22;69819;48.798;11.770;2023-08-01T01:14:50;22.40;50.90
80495;DHT22;69819;48.798;11.770;2023-08-01T01:17:16;22.40;51.10
80495;DHT22;69819;48.798;11.770;2023-08-01T01:19:42;22.40;51.10
80495;DHT22;69819;48.798;11.770;2023-08-01T01:22:09;22.40;51.20
80495;DHT22;69819;48.798;11.770;2023-08-01T01:24:37;22.30;51.20
80495;DHT22;69819;48.798;11.770;2023-08-01T01:27:07;22.30;51.30
80495;DHT22;69819;48.798;11.770;2023-08-01T01:29:37;22.30;51.20
80495;DHT22;69819;48.798;11.770;2023-08-01T01:32:05;22.30;51.30
80495;DHT22;69819;48.798;11.770;2023-08-01T01:34:31;22.30;51.30
80495;DHT22;69819;48.798;11.770;2023-08-01T01:36:57;22.30;51.30
80495;DHT22;69819;48.798;11.770;2023-08-01T01:39:23;22.30;51.30
80495;DHT22;69819;48.798;11.770;2023-08-01T01:41:49;22.30;51.30
80495;DHT22;69819;48.798;11.770;2023-08-01T01:44:15;22.30;51.30
80495;DHT22;69819;48.798;11.770;2023-08-01T01:46:41;22.30;51.30
80495;DHT22;69819;48.798;11.770;2023-08-01T01:49:07;22.40;51.40
80495;DHT22;69819;48.798;11.770;2023-08-01T01:51:33;22.40;51.40
80495;DHT22;69819;48.798;11.770;2023-08-01T01:53:59;22.40;51.50
80495;DHT22;69819;48.798;11.770;2023-08-01T01:56:25;22.40;51.30
80495;DHT22;69819;48.798;11.770;2023-08-01T01:58:51;22.40;51.40
80495;DHT22;69819;48.798;11.770;2023-08-01T02:01:17;22.50;51.50
80495;DHT22;69819;48.798;11.770;2023-08-01T02:03:42;22.50;51.50
80495;DHT22;69819;48.798;11.770;2023-08-01T02:06:08;22.50;51.50
80495;DHT22;69819;48.798;11.770;2023-08-01T02:08:34;22.50;51.50
80495;DHT22;69819;48.798;11.770;2023-08-01T02:11:00;22.50;51.40
80495;DHT22;69819;48.798;11.770;2023-08-01T02:13:27;22.50;51.30
80495;DHT22;69819;48.798;11.770;2023-08-01T02:15:54;22.60;51.40
80495;DHT22;69819;48.798;11.770;2023-08-01T02:18:20;22.60;51.30
80495;DHT22;69819;48.798;11.770;2023-08-01T02:20:46;22.60;51.20
80495;DHT22;69819;48.798;11.770;2023-08-01T02:23:12;22.60;51.20
80495;DHT22;69819;48.798;11.770;2023-08-01T02:25:41;22.60;51.20
80495;DHT22;69819;48.798;11.770;2023-08-01T02:28:08;22.60;51.20
80495;DHT22;69819;48.798;11.770;2023-08-01T02:30:34;22.60;51.20
80495;DHT22;69819;48.798;11.770;2023-08-01T02:33:01;22.60;51.20
80495;DHT22;69819;48.798;11.770;2023-08-01T02:35:28;22.70;51.80
80495;DHT22;69819;48.798;11.770;2023-08-01T02:37:54;22.70;51.20
80495;DHT22;69819;48.798;11.770;2023-08-01T02:40:21;22.70;51.10
80495;DHT22;69819;48.798;11.770;2023-08-01T02:42:47;22.70;51.10
80495;DHT22;69819;48.798;11.770;2023-08-01T02:45:13;22.70;51.00
80495;DHT22;69819;48.798;11.770;2023-08-01T02:47:38;22.70;51.00
80495;DHT22;69819;48.798;11.770;2023-08-01T02:50:05;22.70;51.00
80495;DHT22;69819;48.798;11.770;2023-08-01T02:52:31;22.80;51.10
80495;DHT22;69819;48.798;11.770;2023-08-01T02:54:57;22.70;50.90
80495;DHT22;69819;48.798;11.770;2023-08-01T02:57:23;22.80;50.90
80495;DHT22;69819;48.798;11.770;2023-08-01T02:59:49;22.80;50.90
80495;DHT22;69819;48.798;11.770;2023-08-01T03:02:16;22.80;50.80
80495;DHT22;69819;48.798;11.770;2023-08-01T03:04:42;22.80;50.70
80495;DHT22;69819;48.798;11.770;2023-08-01T03:07:08;22.80;50.80
80495;DHT22;69819;48.798;11.770;2023-08-01T03:09:34;22.90;50.90
80495;DHT22;69819;48.798;11.770;2023-08-01T03:12:00;22.90;51.00
80495;DHT22;69819;48.798;11.770;2023-08-01T03:14:26;22.90;50.90
80495;DHT22;69819;48.798;11.770;2023-08-01T03:16:51;22.90;50.90
80495;DHT22;69819;48.798;11.770;2023-08-01T03:19:17;22.80;50.90
80495;DHT22;69819;48.798;11.770;2023-08-01T03:21:43;22.90;50.90
80495;DHT22;69819;48.798;11.770;2023-08-01T03:24:09;22.90;50.80
80495;DHT22;69819;48.798;11.770;2023-08-01T03:26:36;22.90;50.70
80495;DHT22;69819;48.798;11.770;2023-08-01T03:29:02;22.90;50.70
80495;DHT22;69819;48.798;11.770;2023-08-01T03:31:30;22.90;50.70
80495;DHT22;69819;48.798;11.770;2023-08-01T03:33:56;22.90;50.60
80495;DHT22;69819;48.798;11.770;2023-08-01T03:36:24;22.90;50.60
80495;DHT22;69819;48.798;11.770;2023-08-01T03:38:51;22.90;50.60
80495;DHT22;69819;48.798;11.770;2023-08-01T03:41:17;23.00;50.70
80495;DHT22;69819;48.798;11.770;2023-08-01T03:43:43;23.00;50.40
80495;DHT22;69819;48.798;11.770;2023-08-01T03:46:09;23.00;50.40
80495;DHT22;69819;48.798;11.770;2023-08-01T03:48:35;23.00;50.50
80495;DHT22;69819;48.798;11.770;2023-08-01T03:51:01;23.00;50.40
80495;DHT22;69819;48.798;11.770;2023-08-01T03:53:29;23.00;50.50
80495;DHT22;69819;48.798;11.770;2023-08-01T03:55:55;23.10;50.50
80495;DHT22;69819;48.798;11.770;2023-08-01T03:58:21;23.10;50.60
80495;DHT22;69819;48.798;11.770;2023-08-01T04:00:47;23.10;50.80
80495;DHT22;69819;48.798;11.770;2023-08-01T04:03:13;23.10;50.80
80495;DHT22;69819;48.798;11.770;2023-08-01T04:05:39;23.10;50.80
80495;DHT22;69819;48.798;11.770;2023-08-01T04:08:05;23.00;50.90
80495;DHT22;69819;48.798;11.770;2023-08-01T04:10:32;23.00;50.90
80495;DHT22;69819;48.798;11.770;2023-08-01T04:12:58;22.90;50.80
80495;DHT22;69819;48.798;11.770;2023-08-01T04:15:24;22.80;50.80
80495;DHT22;69819;48.798;11.770;2023-08-01T04:17:49;22.80;51.00
80495;DHT22;69819;48.798;11.770;2023-08-01T04:20:15;22.70;51.00
80495;DHT22;69819;48.798;11.770;2023-08-01T04:22:41;22.60;51.00
80495;DHT22;69819;48.798;11.770;2023-08-01T04:25:07;22.60;51.20
80495;DHT22;69819;48.798;11.770;2023-08-01T04:27:34;22.60;51.70
80495;DHT22;69819;48.798;11.770;2023-08-01T04:30:00;22.50;51.20
80495;DHT22;69819;48.798;11.770;2023-08-01T04:32:26;22.50;51.40
80495;DHT22;69819;48.798;11.770;2023-08-01T04:34:52;22.50;51.60
80495;DHT22;69819;48.798;11.770;2023-08-01T04:37:18;22.40;52.10
80495;DHT22;69819;48.798;11.770;2023-08-01T04:39:46;22.40;51.60
80495;DHT22;69819;48.798;11.770;2023-08-01T04:42:12;22.40;51.70
80495;DHT22;69819;48.798;11.770;2023-08-01T04:44:38;22.40;51.80
80495;DHT22;69819;48.798;11.770;2023-08-01T04:47:04;22.30;51.80
80495;DHT22;69819;48.798;11.770;2023-08-01T04:49:30;22.30;51.90
80495;DHT22;69819;48.798;11.770;2023-08-01T04:51:56;22.30;51.90
80495;DHT22;69819;48.798;11.770;2023-08-01T04:54:22;22.20;51.90
80495;DHT22;69819;48.798;11.770;2023-08-01T04:56:48;22.20;52.60
80495;DHT22;69819;48.798;11.770;2023-08-01T04:59:14;22.20;52.00
80495;DHT22;69819;48.798;11.770;2023-08-01T05:01:40;22.20;52.10
80495;DHT22;69819;48.798;11.770;2023-08-01T05:04:06;22.20;52.20
80495;DHT22;69819;48.798;11.770;2023-08-01T05:06:32;22.20;52.20
80495;DHT22;69819;48.798;11.770;2023-08-01T05:08:57;22.10;52.20
80495;DHT22;69819;48.798;11.770;2023-08-01T05:11:24;22.10;52.20
80495;DHT22;69819;48.798;11.770;2023-08-01T05:13:50;22.10;52.30
80495;DHT22;69819;48.798;11.770;2023-08-01T05:16:15;22.20;52.50
80495;DHT22;69819;48.798;11.770;2023-08-01T05:18:41;22.20;52.60
80495;DHT22;69819;48.798;11.770;2023-08-01T05:21:07;22.20;52.60
80495;DHT22;69819;48.798;11.770;2023-08-01T05:23:33;22.20;52.60
80495;DHT22;69819;48.798;11.770;2023-08-01T05:25:59;22.20;52.70
80495;DHT22;69819;48.798;11.770;2023-08-01T05:28:25;22.20;52.70
80495;DHT22;69819;48.798;11.770;2023-08-01T05:30:51;22.20;52.70
80495;DHT22;69819;48.798;11.770;2023-08-01T05:33:18;22.20;52.70
80495;DHT22;69819;48.798;11.770;2023-08-01T05:35:44;22.20;52.70
80495;DHT22;69819;48.798;11.770;2023-08-01T05:38:09;22.20;52.70
80495;DHT22;69819;48.798;11.770;2023-08-01T05:40:35;22.30;52.80
80495;DHT22;69819;48.798;11.770;2023-08-01T05:43:02;22.30;52.90
80495;DHT22;69819;48.798;11.770;2023-08-01T05:45:30;22.30;52.90
80495;DHT22;69819;48.798;11.770;2023-08-01T05:47:55;22.30;52.90
80495;DHT22;69819;48.798;11.770;2023-08-01T05:50:21;22.30;52.90
80495;DHT22;69819;48.798;11.770;2023-08-01T05:52:47;22.40;53.00
80495;DHT22;69819;48.798;11.770;2023-08-01T05:55:13;22.40;53.00
80495;DHT22;69819;48.798;11.770;2023-08-01T05:57:39;22.40;53.10
80495;DHT22;69819;48.798;11.770;2023-08-01T06:00:05;22.50;53.20
80495;DHT22;69819;48.798;11.770;2023-08-01T06:02:32;22.50;53.20
80495;DHT22;69819;48.798;11.770;2023-08-01T06:04:57;22.50;53.20
80495;DHT22;69819;48.798;11.770;2023-08-01T06:07:23;22.60;53.30
80495;DHT22;69819;48.798;11.770;2023-08-01T06:09:50;22.60;53.20
80495;DHT22;69819;48.798;11.770;2023-08-01T06:12:19;22.70;53.30
80495;DHT22;69819;48.798;11.770;2023-08-01T06:14:45;22.70;53.30
80495;DHT22;69819;48.798;11.770;2023-08-01T06:17:12;22.80;53.30
80495;DHT22;69819;48.798;11.770;2023-08-01T06:19:37;22.80;53.30
80495;DHT22;69819;48.798;11.770;2023-08-01T06:22:04;22.80;53.30
80495;DHT22;69819;48.798;11.770;2023-08-01T06:24:30;22.90;53.30
80495;DHT22;69819;48.798;11.770;2023-08-01T06:26:56;23.00;53.50
80495;DHT22;69819;48.798;11.770;2023-08-01T06:29:22;23.00;53.50
80495;DHT22;69819;48.798;11.770;2023-08-01T06:31:48;23.00;53.40
80495;DHT22;69819;48.798;11.770;2023-08-01T06:34:14;23.10;53.40
80495;DHT22;69819;48.798;11.770;2023-08-01T06:36:40;23.10;53.40
80495;DHT22;69819;48.798;11.770;2023-08-01T06:39:05;23.20;53.40
80495;DHT22;69819;48.798;11.770;2023-08-01T06:41:31;23.20;53.30
80495;DHT22;69819;48.798;11.770;2023-08-01T06:43:57;23.20;53.30
80495;DHT22;69819;48.798;11.770;2023-08-01T06:46:23;23.20;53.20
80495;DHT22;69819;48.798;11.770;2023-08-01T06:48:49;23.30;53.30
80495;DHT22;69819;48.798;11.770;2023-08-01T06:51:15;23.30;53.30
80495;DHT22;69819;48.798;11.770;2023-08-01T06:53:41;23.30;53.30
80495;DHT22;69819;48.798;11.770;2023-08-01T06:56:06;23.30;53.30
80495;DHT22;69819;48.798;11.770;2023-08-01T06:58:32;23.30;53.30
80495;DHT22;69819;48.798;11.770;2023-08-01T07:00:58;23.50;53.40
80495;DHT22;69819;48.798;11.770;2023-08-01T07:03:24;23.50;53.50
80495;DHT22;69819;48.798;11.770;2023-08-01T07:05:50;23.50;53.40
80495;DHT22;69819;48.798;11.770;2023-08-01T07:08:16;23.60;53.50
80495;DHT22;69819;48.798;11.770;2023-08-01T07:10:42;23.60;53.50
80495;DHT22;69819;48.798;11.770;2023-08-01T07:13:07;23.70;53.60
80495;DHT22;69819;48.798;11.770;2023-08-01T07:15:34;23.80;53.70
80495;DHT22;69819;48.798;11.770;2023-08-01T07:18:00;23.90;53.70
80495;DHT22;69819;48.798;11.770;2023-08-01T07:20:25;24.10;53.80
80495;DHT22;69819;48.798;11.770;2023-08-01T07:22:51;24.20;53.80
80495;DHT22;69819;48.798;11.770;2023-08-01T07:25:17;24.40;53.80
80495;DHT22;69819;48.798;11.770;2023-08-01T07:27:45;24.60;53.80
80495;DHT22;69819;48.798;11.770;2023-08-01T07:30:11;24.70;53.60
80495;DHT22;69819;48.798;11.770;2023-08-01T07:32:37;24.90;53.50
80495;DHT22;69819;48.798;11.770;2023-08-01T07:35:05;25.00;53.50
80495;DHT22;69819;48.798;11.770;2023-08-01T07:37:33;25.30;54.10
80495;DHT22;69819;48.798;11.770;2023-08-01T07:39:59;25.80;55.10
80495;DHT22;69819;48.798;11.770;2023-08-01T07:42:25;26.40;55.40
80495;DHT22;69819;48.798;11.770;2023-08-01T07:44:51;27.20;55.10
80495;DHT22;69819;48.798;11.770;2023-08-01T07:47:16;27.90;54.20
80495;DHT22;69819;48.798;11.770;2023-08-01T07:49:42;28.50;53.30
80495;DHT22;69819;48.798;11.770;2023-08-01T07:52:08;29.10;52.30
80495;DHT22;69819;48.798;11.770;2023-08-01T07:54:35;29.50;51.50
80495;DHT22;69819;48.798;11.770;2023-08-01T07:57:01;29.90;50.60
80495;DHT22;69819;48.798;11.770;2023-08-01T07:59:27;30.20;49.80
80495;DHT22;69819;48.798;11.770;2023-08-01T08:01:52;30.40;49.00
80495;DHT22;69819;48.798;11.770;2023-08-01T08:04:18;30.50;48.30
80495;DHT22;69819;48.798;11.770;2023-08-01T08:06:45;30.50;47.90
80495;DHT22;69819;48.798;11.770;2023-08-01T08:09:11;30.50;47.70
80495;DHT22;69819;48.798;11.770;2023-08-01T08:11:36;30.30;47.30
80495;DHT22;69819;48.798;11.770;2023-08-01T08:14:02;30.20;46.90
80495;DHT22;69819;48.798;11.770;2023-08-01T08:16:29;30.10;46.80
80495;DHT22;69819;48.798;11.770;2023-08-01T08:18:55;29.90;46.70
80495;DHT22;69819;48.798;11.770;2023-08-01T08:21:21;29.70;46.50
80495;DHT22;69819;48.798;11.770;2023-08-01T08:23:47;29.60;46.60
80495;DHT22;69819;48.798;11.770;2023-08-01T08:26:13;29.40;46.70
80495;DHT22;69819;48.798;11.770;2023-08-01T08:28:39;29.20;46.70
80495;DHT22;69819;48.798;11.770;2023-08-01T08:31:07;29.00;46.80
80495;DHT22;69819;48.798;11.770;2023-08-01T08:33:33;28.80;46.90
80495;DHT22;69819;48.798;11.770;2023-08-01T08:35:59;28.70;47.00
80495;DHT22;69819;48.798;11.770;2023-08-01T08:38:25;28.50;47.10
80495;DHT22;69819;48.798;11.770;2023-08-01T08:43:36;28.10;47.30
80495;DHT22;69819;48.798;11.770;2023-08-01T08:46:04;27.90;47.30
80495;DHT22;69819;48.798;11.770;2023-08-01T08:48:31;27.80;47.50
80495;DHT22;69819;48.798;11.770;2023-08-01T08:51:01;27.70;47.60
80495;DHT22;69819;48.798;11.770;2023-08-01T08:53:30;27.60;47.70
80495;DHT22;69819;48.798;11.770;2023-08-01T08:55:59;27.50;47.80
80495;DHT22;69819;48.798;11.770;2023-08-01T08:58:26;27.30;47.60
80495;DHT22;69819;48.798;11.770;2023-08-01T09:00:52;27.20;47.50
80495;DHT22;69819;48.798;11.770;2023-08-01T09:03:18;27.20;47.50
80495;DHT22;69819;48.798;11.770;2023-08-01T09:05:49;27.10;47.60
80495;DHT22;69819;48.798;11.770;2023-08-01T09:08:20;26.90;47.60
80495;DHT22;69819;48.798;11.770;2023-08-01T09:10:47;26.80;47.60
80495;DHT22;69819;48.798;11.770;2023-08-01T09:13:14;26.70;47.60
80495;DHT22;69819;48.798;11.770;2023-08-01T09:15:41;26.70;47.80
80495;DHT22;69819;48.798;11.770;2023-08-01T09:18:10;26.60;47.90
80495;DHT22;69819;48.798;11.770;2023-08-01T09:20:46;26.50;48.70
80495;DHT22;69819;48.798;11.770;2023-08-01T09:23:14;26.40;48.20
80495;DHT22;69819;48.798;11.770;2023-08-01T09:25:41;26.30;48.30
80495;DHT22;69819;48.798;11.770;2023-08-01T09:28:19;26.30;48.50
80495;DHT22;69819;48.798;11.770;2023-08-01T09:30:50;26.20;48.60
80495;DHT22;69819;48.798;11.770;2023-08-01T09:33:21;26.10;48.60
80495;DHT22;69819;48.798;11.770;2023-08-01T09:35:50;26.00;48.70
80495;DHT22;69819;48.798;11.770;2023-08-01T09:38:16;26.00;49.10
80495;DHT22;69819;48.798;11.770;2023-08-01T09:40:44;25.90;49.30
80495;DHT22;69819;48.798;11.770;2023-08-01T09:43:14;25.80;49.50
80495;DHT22;69819;48.798;11.770;2023-08-01T09:45:52;25.80;49.80
80495;DHT22;69819;48.798;11.770;2023-08-01T09:48:26;25.70;49.80
80495;DHT22;69819;48.798;11.770;2023-08-01T09:53:48;25.60;50.10
80495;DHT22;69819;48.798;11.770;2023-08-01T09:56:25;25.50;50.10
80495;DHT22;69819;48.798;11.770;2023-08-01T09:58:55;25.50;49.70
80495;DHT22;69819;48.798;11.770;2023-08-01T10:01:23;25.40;49.90
80495;DHT22;69819;48.798;11.770;2023-08-01T10:03:51;25.40;50.00
80495;DHT22;69819;48.798;11.770;2023-08-01T10:06:23;25.40;49.90
80495;DHT22;69819;48.798;11.770;2023-08-01T10:08:54;25.30;49.80
80495;DHT22;69819;48.798;11.770;2023-08-01T10:11:21;25.30;49.80
80495;DHT22;69819;48.798;11.770;2023-08-01T10:13:48;25.20;49.80
80495;DHT22;69819;48.798;11.770;2023-08-01T10:16:16;25.10;49.50
80495;DHT22;69819;48.798;11.770;2023-08-01T10:18:43;25.00;49.40
80495;DHT22;69819;48.798;11.770;2023-08-01T10:21:14;24.90;49.50
80495;DHT22;69819;48.798;11.770;2023-08-01T10:23:42;24.70;49.70
80495;DHT22;69819;48.798;11.770;2023-08-01T10:26:11;24.60;49.70
80495;DHT22;69819;48.798;11.770;2023-08-01T10:28:40;24.50;49.80
80495;DHT22;69819;48.798;11.770;2023-08-01T10:31:14;24.40;49.90
80495;DHT22;69819;48.798;11.770;2023-08-01T10:33:48;24.30;50.10
80495;DHT22;69819;48.798;11.770;2023-08-01T10:38:53;24.10;50.20
80495;DHT22;69819;48.798;11.770;2023-08-01T10:41:33;24.00;50.70
80495;DHT22;69819;48.798;11.770;2023-08-01T10:46:58;24.00;51.10
80495;DHT22;69819;48.798;11.770;2023-08-01T10:52:02;24.10;51.40
80495;DHT22;69819;48.798;11.770;2023-08-01T10:54:28;24.10;51.30
80495;DHT22;69819;48.798;11.770;2023-08-01T10:56:56;24.20;51.60
80495;DHT22;69819;48.798;11.770;2023-08-01T10:59:27;24.30;51.90
80495;DHT22;69819;48.798;11.770;2023-08-01T11:01:58;24.50;52.20
80495;DHT22;69819;48.798;11.770;2023-08-01T11:04:25;24.80;52.40
80495;DHT22;69819;48.798;11.770;2023-08-01T11:06:54;25.00;52.20
80495;DHT22;69819;48.798;11.770;2023-08-01T11:09:25;25.20;52.00
80495;DHT22;69819;48.798;11.770;2023-08-01T11:11:54;25.40;51.80
80495;DHT22;69819;48.798;11.770;2023-08-01T11:14:28;25.70;51.70
80495;DHT22;69819;48.798;11.770;2023-08-01T11:16:55;25.80;51.40
80495;DHT22;69819;48.798;11.770;2023-08-01T11:19:27;26.00;51.20
80495;DHT22;69819;48.798;11.770;2023-08-01T11:21:56;26.20;51.00
80495;DHT22;69819;48.798;11.770;2023-08-01T11:24:23;26.20;50.70
80495;DHT22;69819;48.798;11.770;2023-08-01T11:26:52;26.30;50.50
80495;DHT22;69819;48.798;11.770;2023-08-01T11:29:20;26.30;50.20
80495;DHT22;69819;48.798;11.770;2023-08-01T11:31:56;26.40;50.20
80495;DHT22;69819;48.798;11.770;2023-08-01T11:34:24;26.40;50.20
80495;DHT22;69819;48.798;11.770;2023-08-01T11:36:51;26.30;50.20
80495;DHT22;69819;48.798;11.770;2023-08-01T11:39:18;26.30;50.20
80495;DHT22;69819;48.798;11.770;2023-08-01T11:41:44;26.30;50.20
80495;DHT22;69819;48.798;11.770;2023-08-01T11:44:11;26.30;50.50
80495;DHT22;69819;48.798;11.770;2023-08-01T11:46:38;26.30;50.50
80495;DHT22;69819;48.798;11.770;2023-08-01T11:49:06;26.40;50.50
80495;DHT22;69819;48.798;11.770;2023-08-01T11:51:39;26.40;50.30
80495;DHT22;69819;48.798;11.770;2023-08-01T11:54:06;26.40;50.20
80495;DHT22;69819;48.798;11.770;2023-08-01T11:56:33;26.40;50.30
80495;DHT22;69819;48.798;11.770;2023-08-01T11:58:59;26.40;50.20
80495;DHT22;69819;48.798;11.770;2023-08-01T12:01:25;26.30;50.20
80495;DHT22;69819;48.798;11.770;2023-08-01T12:03:55;26.30;50.20
80495;DHT22;69819;48.798;11.770;2023-08-01T12:06:23;26.30;50.20
80495;DHT22;69819;48.798;11.770;2023-08-01T12:08:51;26.30;50.20
80495;DHT22;69819;48.798;11.770;2023-08-01T12:11:18;26.20;50.10
80495;DHT22;69819;48.798;11.770;2023-08-01T12:13:45;26.10;50.00
80495;DHT22;69819;48.798;11.770;2023-08-01T12:16:11;26.10;50.00
80495;DHT22;69819;48.798;11.770;2023-08-01T12:18:39;26.00;50.10
80495;DHT22;69819;48.798;11.770;2023-08-01T12:21:05;26.00;50.30
80495;DHT22;69819;48.798;11.770;2023-08-01T12:23:31;25.90;50.40
80495;DHT22;69819;48.798;11.770;2023-08-01T12:25:57;25.90;50.50
80495;DHT22;69819;48.798;11.770;2023-08-01T12:28:23;25.80;50.50
80495;DHT22;69819;48.798;11.770;2023-08-01T12:30:49;25.80;50.50
80495;DHT22;69819;48.798;11.770;2023-08-01T12:33:16;25.70;50.60
80495;DHT22;69819;48.798;11.770;2023-08-01T12:35:42;25.70;50.80
80495;DHT22;69819;48.798;11.770;2023-08-01T12:38:08;25.70;50.90
80495;DHT22;69819;48.798;11.770;2023-08-01T12:40:35;25.70;51.50
80495;DHT22;69819;48.798;11.770;2023-08-01T12:43:01;25.80;51.00
80495;DHT22;69819;48.798;11.770;2023-08-01T12:45:27;25.90;51.20
80495;DHT22;69819;48.798;11.770;2023-08-01T12:47:53;26.00;51.30
80495;DHT22;69819;48.798;11.770;2023-08-01T12:50:18;26.10;51.30
80495;DHT22;69819;48.798;11.770;2023-08-01T12:52:44;26.20;51.40
80495;DHT22;69819;48.798;11.770;2023-08-01T12:55:10;26.30;51.20
80495;DHT22;69819;48.798;11.770;2023-08-01T12:57:36;26.30;51.00
80495;DHT22;69819;48.798;11.770;2023-08-01T13:00:02;26.40;50.90
80495;DHT22;69819;48.798;11.770;2023-08-01T13:02:28;26.40;50.80
80495;DHT22;69819;48.798;11.770;2023-08-01T13:04:54;26.50;50.70
80495;DHT22;69819;48.798;11.770;2023-08-01T13:07:20;26.50;50.80
80495;DHT22;69819;48.798;11.770;2023-08-01T13:09:46;26.60;50.80
80495;DHT22;69819;48.798;11.770;2023-08-01T13:12:12;26.60;51.00
80495;DHT22;69819;48.798;11.770;2023-08-01T13:14:38;26.80;51.00
80495;DHT22;69819;48.798;11.770;2023-08-01T13:17:04;26.90;51.10
80495;DHT22;69819;48.798;11.770;2023-08-01T13:19:30;27.10;51.20
80495;DHT22;69819;48.798;11.770;2023-08-01T13:21:56;27.20;51.20
80495;DHT22;69819;48.798;11.770;2023-08-01T13:24:21;27.40;50.90
80495;DHT22;69819;48.798;11.770;2023-08-01T13:26:47;27.60;50.80
80495;DHT22;69819;48.798;11.770;2023-08-01T13:29:13;27.70;50.50
80495;DHT22;69819;48.798;11.770;2023-08-01T13:31:39;27.80;50.40
80495;DHT22;69819;48.798;11.770;2023-08-01T13:34:05;27.90;50.40
80495;DHT22;69819;48.798;11.770;2023-08-01T13:36:31;28.00;50.40
80495;DHT22;69819;48.798;11.770;2023-08-01T13:38:57;28.10;50.20
80495;DHT22;69819;48.798;11.770;2023-08-01T13:41:23;28.20;50.10
80495;DHT22;69819;48.798;11.770;2023-08-01T13:43:48;28.40;50.00
80495;DHT22;69819;48.798;11.770;2023-08-01T13:46:16;28.60;49.60
80495;DHT22;69819;48.798;11.770;2023-08-01T13:48:44;28.60;49.40
80495;DHT22;69819;48.798;11.770;2023-08-01T13:51:10;28.80;49.00
80495;DHT22;69819;48.798;11.770;2023-08-01T13:53:36;28.80;48.70
80495;DHT22;69819;48.798;11.770;2023-08-01T13:56:09;28.80;48.40
80495;DHT22;69819;48.798;11.770;2023-08-01T13:58:37;28.90;48.40
80495;DHT22;69819;48.798;11.770;2023-08-01T14:01:08;28.80;48.20
80495;DHT22;69819;48.798;11.770;2023-08-01T14:03:38;28.80;47.90
80495;DHT22;69819;48.798;11.770;2023-08-01T14:06:08;28.90;47.80
80495;DHT22;69819;48.798;11.770;2023-08-01T14:08:36;28.80;47.70
80495;DHT22;69819;48.798;11.770;2023-08-01T14:11:04;28.70;47.60
80495;DHT22;69819;48.798;11.770;2023-08-01T14:13:32;28.70;47.50
80495;DHT22;69819;48.798;11.770;2023-08-01T14:15:59;28.60;47.20
80495;DHT22;69819;48.798;11.770;2023-08-01T14:18:25;28.50;47.10
80495;DHT22;69819;48.798;11.770;2023-08-01T14:20:51;28.40;47.00
80495;DHT22;69819;48.798;11.770;2023-08-01T14:23:18;28.30;47.10
80495;DHT22;69819;48.798;11.770;2023-08-01T14:25:45;28.20;47.00
80495;DHT22;69819;48.798;11.770;2023-08-01T14:28:11;28.10;47.10
80495;DHT22;69819;48.798;11.770;2023-08-01T14:30:37;28.00;47.20
80495;DHT22;69819;48.798;11.770;2023-08-01T14:33:05;27.90;47.40
80495;DHT22;69819;48.798;11.770;2023-08-01T14:35:34;27.80;47.50
80495;DHT22;69819;48.798;11.770;2023-08-01T14:38:00;27.70;47.50
80495;DHT22;69819;48.798;11.770;2023-08-01T14:40:27;27.70;47.80
80495;DHT22;69819;48.798;11.770;2023-08-01T14:42:52;27.70;48.50
80495;DHT22;69819;48.798;11.770;2023-08-01T14:45:18;27.70;48.00
80495;DHT22;69819;48.798;11.770;2023-08-01T14:47:45;27.60;48.00
80495;DHT22;69819;48.798;11.770;2023-08-01T14:50:12;27.70;48.10
80495;DHT22;69819;48.798;11.770;2023-08-01T14:52:38;27.70;47.90
80495;DHT22;69819;48.798;11.770;2023-08-01T14:55:05;27.70;47.90
80495;DHT22;69819;48.798;11.770;2023-08-01T14:57:32;27.70;47.80
80495;DHT22;69819;48.798;11.770;2023-08-01T14:59:58;27.60;48.10
80495;DHT22;69819;48.798;11.770;2023-08-01T15:02:25;27.60;47.60
80495;DHT22;69819;48.798;11.770;2023-08-01T15:04:55;27.60;47.60
80495;DHT22;69819;48.798;11.770;2023-08-01T15:07:23;27.60;47.60
80495;DHT22;69819;48.798;11.770;2023-08-01T15:09:51;27.60;47.70
80495;DHT22;69819;48.798;11.770;2023-08-01T15:12:21;27.60;47.50
80495;DHT22;69819;48.798;11.770;2023-08-01T15:14:54;27.60;47.50
80495;DHT22;69819;48.798;11.770;2023-08-01T15:17:21;27.60;47.40
80495;DHT22;69819;48.798;11.770;2023-08-01T15:19:48;27.60;47.50
80495;DHT22;69819;48.798;11.770;2023-08-01T15:22:15;27.60;47.30
80495;DHT22;69819;48.798;11.770;2023-08-01T15:24:42;27.60;46.40
80495;DHT22;69819;48.798;11.770;2023-08-01T15:27:08;27.60;45.80